sensor_id;sensor_type;location;lat;lon;timestamp;P1;durP1;ratioP1;P2;durP2;ratioP2
10661;SDS011;5379;51.034;7.006;2023-08-17T11:11:06;2.03;;;1.93;;
10661;SDS011;5379;51.034;7.006;2023-08-17T11:13:36;2.63;;;2.43;;
10661;SDS011;5379;51.034;7.006;2023-08-17T11:16:04;2.03;;;1.93;;
10661;SDS011;5379;51.034;7.006;2023-08-17T11:18:32;2.10;;;2.00;;
10661;SDS011;5379;51.034;7.006;2023-08-17T11:20:59;2.13;;;2.03;;
10661;SDS011;5379;51.034;7.006;2023-08-17T11:23:28;1.97;;;1.87;;
10661;SDS011;5379;51.034;7.006;2023-08-17T11:25:57;2.27;;;2.17;;
10661;SDS011;5379;51.034;7.006;2023-08-17T11:28:24;2.27;;;2.17;;
10661;SDS011;5379;51.034;7.006;2023-08-17T11:30:57;3.97;;;2.83;;
10661;SDS011;5379;51.034;7.006;2023-08-17T11:33:25;2.37;;;2.20;;
10661;SDS011;5379;51.034;7.006;2023-08-17T11:35:53;2.00;;;1.90;;
10661;SDS011;5379;51.034;7.006;2023-08-17T11:38:20;2.10;;;2.00;;
10661;SDS011;5379;51.034;7.006;2023-08-17T11:40:47;1.77;;;1.77;;
10661;SDS011;5379;51.034;7.006;2023-08-17T11:43:16;2.10;;;2.00;;
10661;SDS011;5379;51.034;7.006;2023-08-17T11:45:43;2.47;;;2.37;;
10661;SDS011;5379;51.034;7.006;2023-08-17T11:48:10;2.23;;;2.07;;
10661;SDS011;5379;51.034;7.006;2023-08-17T11:50:37;1.27;;;1.27;;
10661;SDS011;5379;51.034;7.006;2023-08-17T11:53:04;2.33;;;2.23;;
10661;SDS011;5379;51.034;7.006;2023-08-17T11:55:31;1.97;;;1.87;;
10661;SDS011;5379;51.034;7.006;2023-08-17T11:57:58;2.17;;;1.90;;
10661;SDS011;5379;51.034;7.006;2023-08-17T12:00:27;2.27;;;2.17;;
10661;SDS011;5379;51.034;7.006;2023-08-17T12:02:53;2.17;;;2.07;;
10661;SDS011;5379;51.034;7.006;2023-08-17T12:05:20;1.60;;;1.60;;
10661;SDS011;5379;51.034;7.006;2023-08-17T12:07:49;1.83;;;1.80;;
10661;SDS011;5379;51.034;7.006;2023-08-17T12:10:17;1.70;;;1.63;;
10661;SDS011;5379;51.034;7.006;2023-08-17T12:12:44;2.97;;;2.53;;
10661;SDS011;5379;51.034;7.006;2023-08-17T12:15:13;1.50;;;1.40;;
10661;SDS011;5379;51.034;7.006;2023-08-17T12:17:45;1.50;;;1.50;;
10661;SDS011;5379;51.034;7.006;2023-08-17T12:20:15;1.30;;;1.30;;
10661;SDS011;5379;51.034;7.006;2023-08-17T12:22:43;1.90;;;1.63;;
10661;SDS011;5379;51.034;7.006;2023-08-17T12:25:10;1.70;;;1.60;;
10661;SDS011;5379;51.034;7.006;2023-08-17T12:27:37;2.30;;;2.20;;
10661;SDS011;5379;51.034;7.006;2023-08-17T12:30:05;2.80;;;2.60;;
10661;SDS011;5379;51.034;7.006;2023-08-17T12:32:38;2.37;;;2.23;;
10661;SDS011;5379;51.034;7.006;2023-08-17T12:35:07;3.03;;;2.73;;
10661;SDS011;5379;51.034;7.006;2023-08-17T12:37:34;1.70;;;1.70;;
10661;SDS011;5379;51.034;7.006;2023-08-17T12:40:01;2.83;;;2.70;;
10661;SDS011;5379;51.034;7.006;2023-08-17T12:42:28;1.93;;;1.83;;
10661;SDS011;5379;51.034;7.006;2023-08-17T12:44:55;1.83;;;1.73;;
10661;SDS011;5379;51.034;7.006;2023-08-17T12:47:22;1.90;;;1.83;;
10661;SDS011;5379;51.034;7.006;2023-08-17T12:49:49;2.17;;;2.07;;
10661;SDS011;5379;51.034;7.006;2023-08-17T12:52:18;1.73;;;1.73;;
10661;SDS011;5379;51.034;7.006;2023-08-17T12:54:44;1.73;;;1.73;;
10661;SDS011;5379;51.034;7.006;2023-08-17T12:57:11;1.83;;;1.73;;
10661;SDS011;5379;51.034;7.006;2023-08-17T12:59:38;2.07;;;1.93;;
10661;SDS011;5379;51.034;7.006;2023-08-17T13:02:05;3.57;;;3.37;;
10661;SDS011;5379;51.034;7.006;2023-08-17T13:04:32;2.20;;;2.00;;
10661;SDS011;5379;51.034;7.006;2023-08-17T13:06:58;2.13;;;2.03;;
10661;SDS011;5379;51.034;7.006;2023-08-17T13:09:27;1.50;;;1.50;;
10661;SDS011;5379;51.034;7.006;2023-08-17T13:11:53;1.50;;;1.50;;
10661;SDS011;5379;51.034;7.006;2023-08-17T13:14:20;1.63;;;1.53;;
10661;SDS011;5379;51.034;7.006;2023-08-17T13:16:47;1.70;;;1.70;;
10661;SDS011;5379;51.034;7.006;2023-08-17T13:19:14;1.20;;;1.20;;
10661;SDS011;5379;51.034;7.006;2023-08-17T13:21:41;2.27;;;2.13;;
10661;SDS011;5379;51.034;7.006;2023-08-17T13:24:08;1.60;;;1.50;;
10661;SDS011;5379;51.034;7.006;2023-08-17T13:26:36;1.37;;;1.37;;
10661;SDS011;5379;51.034;7.006;2023-08-17T13:29:03;1.80;;;1.70;;
10661;SDS011;5379;51.034;7.006;2023-08-17T13:31:30;1.90;;;1.80;;
10661;SDS011;5379;51.034;7.006;2023-08-17T13:33:57;1.93;;;1.80;;
10661;SDS011;5379;51.034;7.006;2023-08-17T13:36:24;1.70;;;1.60;;
10661;SDS011;5379;51.034;7.006;2023-08-17T13:38:50;1.80;;;1.70;;
10661;SDS011;5379;51.034;7.006;2023-08-17T13:41:17;1.70;;;1.70;;
10661;SDS011;5379;51.034;7.006;2023-08-17T13:43:45;1.57;;;1.57;;
10661;SDS011;5379;51.034;7.006;2023-08-17T13:46:12;1.80;;;1.80;;
10661;SDS011;5379;51.034;7.006;2023-08-17T13:48:39;1.90;;;1.80;;
10661;SDS011;5379;51.034;7.006;2023-08-17T13:51:06;1.97;;;1.87;;
10661;SDS011;5379;51.034;7.006;2023-08-17T13:53:33;2.17;;;2.00;;
10661;SDS011;5379;51.034;7.006;2023-08-17T13:56:00;1.37;;;1.37;;
10661;SDS011;5379;51.034;7.006;2023-08-17T13:58:26;1.70;;;1.70;;
10661;SDS011;5379;51.034;7.006;2023-08-17T14:00:54;2.13;;;1.50;;
10661;SDS011;5379;51.034;7.006;2023-08-17T14:03:22;1.37;;;1.37;;
10661;SDS011;5379;51.034;7.006;2023-08-17T14:05:49;1.80;;;1.70;;
10661;SDS011;5379;51.034;7.006;2023-08-17T14:08:16;1.37;;;1.37;;
10661;SDS011;5379;51.034;7.006;2023-08-17T14:10:42;2.30;;;2.10;;
10661;SDS011;5379;51.034;7.006;2023-08-17T14:13:09;1.97;;;1.87;;
10661;SDS011;5379;51.034;7.006;2023-08-17T14:15:36;1.93;;;1.83;;
10661;SDS011;5379;51.034;7.006;2023-08-17T14:18:04;2.13;;;2.00;;
10661;SDS011;5379;51.034;7.006;2023-08-17T14:20:31;1.37;;;1.37;;
10661;SDS011;5379;51.034;7.006;2023-08-17T14:22:58;1.70;;;1.70;;
10661;SDS011;5379;51.034;7.006;2023-08-17T14:25:25;1.70;;;1.67;;
10661;SDS011;5379;51.034;7.006;2023-08-17T14:27:53;2.00;;;1.90;;
10661;SDS011;5379;51.034;7.006;2023-08-17T14:30:19;2.17;;;2.07;;
10661;SDS011;5379;51.034;7.006;2023-08-17T14:32:46;1.87;;;1.77;;
10661;SDS011;5379;51.034;7.006;2023-08-17T14:35:14;1.50;;;1.50;;
10661;SDS011;5379;51.034;7.006;2023-08-17T14:37:41;1.93;;;1.83;;
10661;SDS011;5379;51.034;7.006;2023-08-17T14:40:08;2.10;;;2.00;;
10661;SDS011;5379;51.034;7.006;2023-08-17T14:42:35;2.53;;;2.33;;
10661;SDS011;5379;51.034;7.006;2023-08-17T14:45:03;2.30;;;2.20;;
10661;SDS011;5379;51.034;7.006;2023-08-17T14:47:30;2.00;;;1.90;;
10661;SDS011;5379;51.034;7.006;2023-08-17T14:49:57;1.77;;;1.77;;
10661;SDS011;5379;51.034;7.006;2023-08-17T14:52:25;2.67;;;2.53;;
10661;SDS011;5379;51.034;7.006;2023-08-17T14:54:52;2.23;;;2.13;;
10661;SDS011;5379;51.034;7.006;2023-08-17T14:57:18;2.13;;;2.03;;
10661;SDS011;5379;51.034;7.006;2023-08-17T14:59:45;1.33;;;1.33;;
10661;SDS011;5379;51.034;7.006;2023-08-17T15:02:12;2.60;;;2.10;;
10661;SDS011;5379;51.034;7.006;2023-08-17T15:04:39;2.23;;;2.13;;
10661;SDS011;5379;51.034;7.006;2023-08-17T15:07:05;2.30;;;2.20;;
10661;SDS011;5379;51.034;7.006;2023-08-17T15:09:36;2.00;;;1.90;;
10661;SDS011;5379;51.034;7.006;2023-08-17T15:12:03;2.83;;;1.60;;
10661;SDS011;5379;51.034;7.006;2023-08-17T15:14:30;1.87;;;1.77;;
10661;SDS011;5379;51.034;7.006;2023-08-17T15:16:57;1.93;;;1.83;;
10661;SDS011;5379;51.034;7.006;2023-08-17T15:19:24;2.57;;;2.37;;
10661;SDS011;5379;51.034;7.006;2023-08-17T15:21:51;1.83;;;1.73;;
10661;SDS011;5379;51.034;7.006;2023-08-17T15:24:18;1.83;;;1.80;;
10661;SDS011;5379;51.034;7.006;2023-08-17T15:26:46;2.03;;;1.93;;
10661;SDS011;5379;51.034;7.006;2023-08-17T15:29:13;1.50;;;1.50;;
10661;SDS011;5379;51.034;7.006;2023-08-17T15:31:39;1.60;;;1.60;;
10661;SDS011;5379;51.034;7.006;2023-08-17T15:34:06;1.77;;;1.70;;
10661;SDS011;5379;51.034;7.006;2023-08-17T15:36:33;1.80;;;1.70;;
10661;SDS011;5379;51.034;7.006;2023-08-17T15:38:59;1.10;;;1.10;;
10661;SDS011;5379;51.034;7.006;2023-08-17T15:41:26;2.57;;;1.80;;
10661;SDS011;5379;51.034;7.006;2023-08-17T15:43:54;1.27;;;1.27;;
10661;SDS011;5379;51.034;7.006;2023-08-17T15:46:21;3.07;;;2.87;;
10661;SDS011;5379;51.034;7.006;2023-08-17T15:48:48;1.37;;;1.37;;
10661;SDS011;5379;51.034;7.006;2023-08-17T15:51:14;1.70;;;1.70;;
10661;SDS011;5379;51.034;7.006;2023-08-17T15:53:41;1.73;;;1.63;;
10661;SDS011;5379;51.034;7.006;2023-08-17T15:56:09;2.03;;;1.93;;
10661;SDS011;5379;51.034;7.006;2023-08-17T15:58:36;2.00;;;1.57;;
10661;SDS011;5379;51.034;7.006;2023-08-17T16:01:04;1.10;;;1.10;;
10661;SDS011;5379;51.034;7.006;2023-08-17T16:03:30;1.70;;;1.50;;
10661;SDS011;5379;51.034;7.006;2023-08-17T16:05:57;1.47;;;1.47;;
10661;SDS011;5379;51.034;7.006;2023-08-17T16:08:24;1.30;;;1.30;;
10661;SDS011;5379;51.034;7.006;2023-08-17T16:10:51;1.90;;;1.80;;
10661;SDS011;5379;51.034;7.006;2023-08-17T16:13:17;1.70;;;1.70;;
10661;SDS011;5379;51.034;7.006;2023-08-17T16:15:44;2.20;;;2.10;;
10661;SDS011;5379;51.034;7.006;2023-08-17T16:18:12;1.53;;;1.43;;
10661;SDS011;5379;51.034;7.006;2023-08-17T16:20:39;2.00;;;1.90;;
10661;SDS011;5379;51.034;7.006;2023-08-17T16:23:06;1.97;;;1.87;;
10661;SDS011;5379;51.034;7.006;2023-08-17T16:25:32;1.93;;;1.83;;
10661;SDS011;5379;51.034;7.006;2023-08-17T16:27:59;1.67;;;1.67;;
10661;SDS011;5379;51.034;7.006;2023-08-17T16:30:26;1.63;;;1.60;;
10661;SDS011;5379;51.034;7.006;2023-08-17T16:32:53;1.97;;;1.87;;
10661;SDS011;5379;51.034;7.006;2023-08-17T16:35:21;1.60;;;1.50;;
10661;SDS011;5379;51.034;7.006;2023-08-17T16:37:48;1.63;;;1.63;;
10661;SDS011;5379;51.034;7.006;2023-08-17T16:40:15;1.57;;;1.57;;
10661;SDS011;5379;51.034;7.006;2023-08-17T16:42:42;20.97;;;2.03;;
10661;SDS011;5379;51.034;7.006;2023-08-17T16:45:10;1.90;;;1.80;;
10661;SDS011;5379;51.034;7.006;2023-08-17T16:47:37;1.57;;;1.53;;
10661;SDS011;5379;51.034;7.006;2023-08-17T16:50:04;2.00;;;1.90;;
10661;SDS011;5379;51.034;7.006;2023-08-17T16:52:32;2.23;;;2.00;;
10661;SDS011;5379;51.034;7.006;2023-08-17T16:54:59;1.90;;;1.80;;
10661;SDS011;5379;51.034;7.006;2023-08-17T16:57:26;3.17;;;1.50;;
10661;SDS011;5379;51.034;7.006;2023-08-17T16:59:52;1.30;;;1.30;;
10661;SDS011;5379;51.034;7.006;2023-08-17T17:02:19;1.80;;;1.70;;
10661;SDS011;5379;51.034;7.006;2023-08-17T17:04:46;1.60;;;1.50;;
10661;SDS011;5379;51.034;7.006;2023-08-17T17:07:13;1.67;;;1.63;;
10661;SDS011;5379;51.034;7.006;2023-08-17T17:09:41;1.50;;;1.50;;
10661;SDS011;5379;51.034;7.006;2023-08-17T17:12:09;1.20;;;1.20;;
10661;SDS011;5379;51.034;7.006;2023-08-17T17:14:37;1.93;;;1.83;;
10661;SDS011;5379;51.034;7.006;2023-08-17T17:17:04;2.03;;;1.93;;
10661;SDS011;5379;51.034;7.006;2023-08-17T17:19:31;2.47;;;2.17;;
10661;SDS011;5379;51.034;7.006;2023-08-17T17:21:58;1.90;;;1.67;;
10661;SDS011;5379;51.034;7.006;2023-08-17T17:24:25;1.70;;;1.60;;
10661;SDS011;5379;51.034;7.006;2023-08-17T17:26:53;1.50;;;1.50;;
10661;SDS011;5379;51.034;7.006;2023-08-17T17:29:20;1.20;;;1.20;;
10661;SDS011;5379;51.034;7.006;2023-08-17T17:31:46;1.50;;;1.50;;
10661;SDS011;5379;51.034;7.006;2023-08-17T17:34:13;2.07;;;1.87;;
10661;SDS011;5379;51.034;7.006;2023-08-17T17:36:40;2.73;;;1.53;;
10661;SDS011;5379;51.034;7.006;2023-08-17T17:39:07;1.47;;;1.43;;
10661;SDS011;5379;51.034;7.006;2023-08-17T17:41:33;1.10;;;1.10;;
10661;SDS011;5379;51.034;7.006;2023-08-17T17:44:02;1.50;;;1.50;;
10661;SDS011;5379;51.034;7.006;2023-08-17T17:46:29;1.53;;;1.53;;
10661;SDS011;5379;51.034;7.006;2023-08-17T17:48:55;1.80;;;1.70;;
10661;SDS011;5379;51.034;7.006;2023-08-17T17:51:23;1.50;;;1.50;;
10661;SDS011;5379;51.034;7.006;2023-08-17T17:53:50;2.57;;;2.33;;
10661;SDS011;5379;51.034;7.006;2023-08-17T17:56:16;1.53;;;1.50;;
10661;SDS011;5379;51.034;7.006;2023-08-17T17:58:43;2.00;;;1.90;;
10661;SDS011;5379;51.034;7.006;2023-08-17T18:01:11;1.50;;;1.40;;
10661;SDS011;5379;51.034;7.006;2023-08-17T18:03:38;2.33;;;2.10;;
10661;SDS011;5379;51.034;7.006;2023-08-17T18:06:05;2.00;;;1.93;;
10661;SDS011;5379;51.034;7.006;2023-08-17T18:08:31;1.80;;;1.70;;
10661;SDS011;5379;51.034;7.006;2023-08-17T18:10:59;1.87;;;1.80;;
10661;SDS011;5379;51.034;7.006;2023-08-17T18:13:25;1.87;;;1.77;;
10661;SDS011;5379;51.034;7.006;2023-08-17T18:15:52;1.93;;;1.83;;
10661;SDS011;5379;51.034;7.006;2023-08-17T18:18:20;2.60;;;2.13;;
10661;SDS011;5379;51.034;7.006;2023-08-17T18:20:47;2.77;;;2.57;;
10661;SDS011;5379;51.034;7.006;2023-08-17T18:23:14;1.83;;;1.77;;
10661;SDS011;5379;51.034;7.006;2023-08-17T18:25:41;1.97;;;1.77;;
10661;SDS011;5379;51.034;7.006;2023-08-17T18:28:11;1.43;;;1.43;;
10661;SDS011;5379;51.034;7.006;2023-08-17T18:30:38;2.33;;;2.13;;
10661;SDS011;5379;51.034;7.006;2023-08-17T18:33:04;1.53;;;1.53;;
10661;SDS011;5379;51.034;7.006;2023-08-17T18:35:32;1.97;;;1.87;;
10661;SDS011;5379;51.034;7.006;2023-08-17T18:37:59;1.23;;;1.23;;
10661;SDS011;5379;51.034;7.006;2023-08-17T18:40:26;4.63;;;2.40;;
10661;SDS011;5379;51.034;7.006;2023-08-17T18:42:53;1.77;;;1.67;;
10661;SDS011;5379;51.034;7.006;2023-08-17T18:45:20;1.87;;;1.77;;
10661;SDS011;5379;51.034;7.006;2023-08-17T18:47:47;1.70;;;1.70;;
10661;SDS011;5379;51.034;7.006;2023-08-17T18:50:14;2.00;;;1.90;;
10661;SDS011;5379;51.034;7.006;2023-08-17T18:52:43;1.77;;;1.67;;
10661;SDS011;5379;51.034;7.006;2023-08-17T18:55:09;2.17;;;2.07;;
10661;SDS011;5379;51.034;7.006;2023-08-17T18:57:37;2.23;;;2.03;;
10661;SDS011;5379;51.034;7.006;2023-08-17T19:00:05;1.83;;;1.73;;
10661;SDS011;5379;51.034;7.006;2023-08-17T19:02:34;1.67;;;1.57;;
10661;SDS011;5379;51.034;7.006;2023-08-17T19:05:00;1.70;;;1.70;;
10661;SDS011;5379;51.034;7.006;2023-08-17T19:07:28;0.97;;;0.97;;
10661;SDS011;5379;51.034;7.006;2023-08-17T19:09:56;1.77;;;1.67;;
10661;SDS011;5379;51.034;7.006;2023-08-17T19:12:23;1.23;;;1.17;;
10661;SDS011;5379;51.034;7.006;2023-08-17T19:14:50;1.50;;;1.50;;
10661;SDS011;5379;51.034;7.006;2023-08-17T19:17:17;1.23;;;1.23;;
10661;SDS011;5379;51.034;7.006;2023-08-17T19:19:44;1.60;;;1.50;;
10661;SDS011;5379;51.034;7.006;2023-08-17T19:22:11;1.47;;;1.47;;
10661;SDS011;5379;51.034;7.006;2023-08-17T19:24:38;1.30;;;1.30;;
10661;SDS011;5379;51.034;7.006;2023-08-17T19:27:06;1.77;;;1.77;;
10661;SDS011;5379;51.034;7.006;2023-08-17T19:29:33;2.67;;;2.20;;
10661;SDS011;5379;51.034;7.006;2023-08-17T19:32:00;1.50;;;1.40;;
10661;SDS011;5379;51.034;7.006;2023-08-17T19:34:26;2.00;;;1.90;;
10661;SDS011;5379;51.034;7.006;2023-08-17T19:36:53;1.40;;;1.40;;
10661;SDS011;5379;51.034;7.006;2023-08-17T19:39:20;1.77;;;1.67;;
10661;SDS011;5379;51.034;7.006;2023-08-17T19:41:48;1.70;;;1.60;;
10661;SDS011;5379;51.034;7.006;2023-08-17T19:44:16;1.53;;;1.43;;
10661;SDS011;5379;51.034;7.006;2023-08-17T19:46:43;1.53;;;1.53;;
10661;SDS011;5379;51.034;7.006;2023-08-17T19:49:09;1.20;;;1.20;;
10661;SDS011;5379;51.034;7.006;2023-08-17T19:51:36;1.70;;;1.60;;
10661;SDS011;5379;51.034;7.006;2023-08-17T19:54:04;1.60;;;1.60;;
10661;SDS011;5379;51.034;7.006;2023-08-17T19:56:31;2.07;;;1.87;;
10661;SDS011;5379;51.034;7.006;2023-08-17T19:58:59;1.83;;;1.73;;
10661;SDS011;5379;51.034;7.006;2023-08-17T20:01:28;1.77;;;1.67;;
10661;SDS011;5379;51.034;7.006;2023-08-17T20:03:55;2.13;;;2.03;;
10661;SDS011;5379;51.034;7.006;2023-08-17T20:06:23;1.90;;;1.80;;
10661;SDS011;5379;51.034;7.006;2023-08-17T20:08:50;1.70;;;1.70;;
10661;SDS011;5379;51.034;7.006;2023-08-17T20:11:17;2.27;;;2.17;;
10661;SDS011;5379;51.034;7.006;2023-08-17T20:13:44;1.90;;;1.80;;
10661;SDS011;5379;51.034;7.006;2023-08-17T20:16:11;1.90;;;1.80;;
10661;SDS011;5379;51.034;7.006;2023-08-17T20:18:39;2.40;;;2.20;;
10661;SDS011;5379;51.034;7.006;2023-08-17T20:21:06;2.00;;;1.90;;
10661;SDS011;5379;51.034;7.006;2023-08-17T20:23:34;1.90;;;1.73;;
10661;SDS011;5379;51.034;7.006;2023-08-17T20:26:00;2.40;;;2.23;;
10661;SDS011;5379;51.034;7.006;2023-08-17T20:28:27;1.93;;;1.87;;
10661;SDS011;5379;51.034;7.006;2023-08-17T20:30:54;2.20;;;2.10;;
10661;SDS011;5379;51.034;7.006;2023-08-17T20:33:23;1.87;;;1.77;;
10661;SDS011;5379;51.034;7.006;2023-08-17T20:35:51;1.90;;;1.80;;
10661;SDS011;5379;51.034;7.006;2023-08-17T20:38:19;2.20;;;1.93;;
10661;SDS011;5379;51.034;7.006;2023-08-17T20:40:46;4.57;;;2.20;;
10661;SDS011;5379;51.034;7.006;2023-08-17T20:43:13;1.77;;;1.77;;
10661;SDS011;5379;51.034;7.006;2023-08-17T20:45:40;1.70;;;1.70;;
10661;SDS011;5379;51.034;7.006;2023-08-17T20:48:08;2.10;;;2.00;;
10661;SDS011;5379;51.034;7.006;2023-08-17T20:50:35;2.23;;;2.13;;
10661;SDS011;5379;51.034;7.006;2023-08-17T20:53:04;1.77;;;1.77;;
10661;SDS011;5379;51.034;7.006;2023-08-17T20:55:34;2.00;;;1.90;;
10661;SDS011;5379;51.034;7.006;2023-08-17T20:58:02;2.77;;;2.00;;
10661;SDS011;5379;51.034;7.006;2023-08-17T21:00:29;1.93;;;1.90;;
10661;SDS011;5379;51.034;7.006;2023-08-17T21:02:57;2.00;;;1.90;;
10661;SDS011;5379;51.034;7.006;2023-08-17T21:05:26;1.90;;;1.80;;
10661;SDS011;5379;51.034;7.006;2023-08-17T21:07:53;1.50;;;1.50;;
10661;SDS011;5379;51.034;7.006;2023-08-17T21:10:22;2.40;;;2.30;;
10661;SDS011;5379;51.034;7.006;2023-08-17T21:12:48;2.67;;;2.47;;
10661;SDS011;5379;51.034;7.006;2023-08-17T21:15:15;1.97;;;1.87;;
10661;SDS011;5379;51.034;7.006;2023-08-17T21:17:42;2.27;;;2.17;;
10661;SDS011;5379;51.034;7.006;2023-08-17T21:20:10;2.07;;;1.97;;
10661;SDS011;5379;51.034;7.006;2023-08-17T21:22:37;2.40;;;2.27;;
10661;SDS011;5379;51.034;7.006;2023-08-17T21:25:08;3.83;;;2.50;;
10661;SDS011;5379;51.034;7.006;2023-08-17T21:27:37;2.40;;;2.30;;
10661;SDS011;5379;51.034;7.006;2023-08-17T21:30:04;2.73;;;2.53;;
10661;SDS011;5379;51.034;7.006;2023-08-17T21:32:33;2.40;;;2.30;;
10661;SDS011;5379;51.034;7.006;2023-08-17T21:35:00;2.40;;;2.30;;
10661;SDS011;5379;51.034;7.006;2023-08-17T21:37:27;2.90;;;2.73;;
10661;SDS011;5379;51.034;7.006;2023-08-17T21:39:54;2.97;;;2.83;;
10661;SDS011;5379;51.034;7.006;2023-08-17T21:42:21;2.83;;;2.67;;
10661;SDS011;5379;51.034;7.006;2023-08-17T21:44:50;2.93;;;2.73;;
10661;SDS011;5379;51.034;7.006;2023-08-17T21:47:17;2.90;;;2.70;;
10661;SDS011;5379;51.034;7.006;2023-08-17T21:49:45;3.37;;;3.07;;
10661;SDS011;5379;51.034;7.006;2023-08-17T21:52:12;3.60;;;3.33;;
10661;SDS011;5379;51.034;7.006;2023-08-17T21:54:40;3.00;;;2.87;;
10661;SDS011;5379;51.034;7.006;2023-08-17T21:57:06;3.77;;;2.90;;
10661;SDS011;5379;51.034;7.006;2023-08-17T21:59:33;2.63;;;2.53;;
10661;SDS011;5379;51.034;7.006;2023-08-17T22:02:01;2.70;;;2.60;;
10661;SDS011;5379;51.034;7.006;2023-08-17T22:04:29;2.33;;;2.23;;
10661;SDS011;5379;51.034;7.006;2023-08-17T22:06:57;2.47;;;2.37;;
10661;SDS011;5379;51.034;7.006;2023-08-17T22:09:24;3.63;;;2.80;;
10661;SDS011;5379;51.034;7.006;2023-08-17T22:11:51;3.33;;;3.13;;
10661;SDS011;5379;51.034;7.006;2023-08-17T22:14:18;2.70;;;2.60;;
10661;SDS011;5379;51.034;7.006;2023-08-17T22:16:44;2.20;;;2.10;;
10661;SDS011;5379;51.034;7.006;2023-08-17T22:19:12;2.30;;;2.20;;
10661;SDS011;5379;51.034;7.006;2023-08-17T22:21:39;3.10;;;2.90;;
10661;SDS011;5379;51.034;7.006;2023-08-17T22:24:07;2.50;;;2.40;;
10661;SDS011;5379;51.034;7.006;2023-08-17T22:26:34;2.77;;;2.67;;
10661;SDS011;5379;51.034;7.006;2023-08-17T22:29:01;3.30;;;3.10;;
10661;SDS011;5379;51.034;7.006;2023-08-17T22:31:28;3.30;;;3.00;;
10661;SDS011;5379;51.034;7.006;2023-08-17T22:33:55;2.20;;;2.10;;
10661;SDS011;5379;51.034;7.006;2023-08-17T22:36:23;2.30;;;2.10;;
10661;SDS011;5379;51.034;7.006;2023-08-17T22:38:50;2.30;;;2.20;;
10661;SDS011;5379;51.034;7.006;2023-08-17T22:41:17;2.37;;;2.27;;
10661;SDS011;5379;51.034;7.006;2023-08-17T22:43:44;2.17;;;2.07;;
10661;SDS011;5379;51.034;7.006;2023-08-17T22:46:10;2.17;;;2.07;;
10661;SDS011;5379;51.034;7.006;2023-08-17T22:48:37;4.73;;;2.90;;
10661;SDS011;5379;51.034;7.006;2023-08-17T22:51:04;2.70;;;2.50;;
10661;SDS011;5379;51.034;7.006;2023-08-17T22:53:32;4.30;;;3.60;;
10661;SDS011;5379;51.034;7.006;2023-08-17T22:55:59;2.70;;;2.50;;
10661;SDS011;5379;51.034;7.006;2023-08-17T22:58:27;2.57;;;2.40;;
10661;SDS011;5379;51.034;7.006;2023-08-17T23:00:54;2.93;;;2.73;;
10661;SDS011;5379;51.034;7.006;2023-08-17T23:03:21;2.33;;;2.23;;
10661;SDS011;5379;51.034;7.006;2023-08-17T23:05:48;2.70;;;2.60;;
10661;SDS011;5379;51.034;7.006;2023-08-17T23:08:15;2.80;;;2.70;;
10661;SDS011;5379;51.034;7.006;2023-08-17T23:10:43;2.80;;;2.70;;
10661;SDS011;5379;51.034;7.006;2023-08-17T23:13:09;2.97;;;2.80;;
10661;SDS011;5379;51.034;7.006;2023-08-17T23:15:36;2.87;;;2.77;;
10661;SDS011;5379;51.034;7.006;2023-08-17T23:18:03;2.60;;;2.50;;
10661;SDS011;5379;51.034;7.006;2023-08-17T23:20:30;3.33;;;3.03;;
10661;SDS011;5379;51.034;7.006;2023-08-17T23:22:57;2.63;;;2.53;;
10661;SDS011;5379;51.034;7.006;2023-08-17T23:25:24;2.83;;;2.73;;
10661;SDS011;5379;51.034;7.006;2023-08-17T23:27:53;3.40;;;3.20;;
10661;SDS011;5379;51.034;7.006;2023-08-17T23:30:19;3.20;;;3.00;;
10661;SDS011;5379;51.034;7.006;2023-08-17T23:32:46;2.87;;;2.77;;
10661;SDS011;5379;51.034;7.006;2023-08-17T23:35:15;3.57;;;3.27;;
10661;SDS011;5379;51.034;7.006;2023-08-17T23:37:42;2.57;;;2.37;;
10661;SDS011;5379;51.034;7.006;2023-08-17T23:40:09;3.40;;;3.20;;
10661;SDS011;5379;51.034;7.006;2023-08-17T23:42:36;3.27;;;3.07;;
10661;SDS011;5379;51.034;7.006;2023-08-17T23:45:05;3.17;;;2.97;;
10661;SDS011;5379;51.034;7.006;2023-08-17T23:47:33;3.57;;;3.27;;
10661;SDS011;5379;51.034;7.006;2023-08-17T23:50:00;3.07;;;2.87;;
10661;SDS011;5379;51.034;7.006;2023-08-17T23:52:27;3.60;;;3.40;;
10661;SDS011;5379;51.034;7.006;2023-08-17T23:54:54;3.37;;;3.17;;
10661;SDS011;5379;51.034;7.006;2023-08-17T23:57:21;3.83;;;3.53;;
10661;SDS011;5379;51.034;7.006;2023-08-17T23:59:48;2.83;;;2.73;;
